sensor_id;sensor_type;location;lat;lon;timestamp;pressure;altitude;pressure_sealevel;temperature
12662;BMP180;3200;48.204;11.576;2024-02-23T00:02:16;93193.50;;;7.69
12662;BMP180;3200;48.204;11.576;2024-02-23T00:04:41;93222.69;;;7.84
12662;BMP180;3200;48.204;11.576;2024-02-23T00:07:07;93225.16;;;7.96
12662;BMP180;3200;48.204;11.576;2024-02-23T00:09:34;93155.13;;;7.29
12662;BMP180;3200;48.204;11.576;2024-02-23T00:12:00;93222.13;;;7.77
12662;BMP180;3200;48.204;11.576;2024-02-23T00:14:31;93261.97;;;8.03
12662;BMP180;3200;48.204;11.576;2024-02-23T00:16:58;93253.88;;;7.82
12662;BMP180;3200;48.204;11.576;2024-02-23T00:19:24;93167.25;;;7.25
12662;BMP180;3200;48.204;11.576;2024-02-23T00:21:53;93159.16;;;7.10
12662;BMP180;3200;48.204;11.576;2024-02-23T00:24:22;93283.06;;;7.92
12662;BMP180;3200;48.204;11.576;2024-02-23T00:26:53;93249.28;;;7.67
12662;BMP180;3200;48.204;11.576;2024-02-23T00:29:21;93204.31;;;7.35
12662;BMP180;3200;48.204;11.576;2024-02-23T00:31:47;93185.41;;;7.16
12662;BMP180;3200;48.204;11.576;2024-02-23T00:34:13;93189.25;;;7.36
12662;BMP180;3200;48.204;11.576;2024-02-23T00:36:42;93191.31;;;7.29
12662;BMP180;3200;48.204;11.576;2024-02-23T00:39:08;93196.28;;;7.20
12662;BMP180;3200;48.204;11.576;2024-02-23T00:41:35;93192.00;;;7.19
12662;BMP180;3200;48.204;11.576;2024-02-23T00:44:09;93262.94;;;7.59
12662;BMP180;3200;48.204;11.576;2024-02-23T00:46:35;93195.97;;;7.16
12662;BMP180;3200;48.204;11.576;2024-02-23T00:49:03;93198.25;;;7.08
12662;BMP180;3200;48.204;11.576;2024-02-23T00:51:31;93183.91;;;6.99
12662;BMP180;3200;48.204;11.576;2024-02-23T00:53:57;93178.66;;;7.04
12662;BMP180;3200;48.204;11.576;2024-02-23T00:56:23;93284.84;;;7.55
12662;BMP180;3200;48.204;11.576;2024-02-23T00:58:49;93263.31;;;7.41
12662;BMP180;3200;48.204;11.576;2024-02-23T01:01:15;93239.91;;;7.28
12662;BMP180;3200;48.204;11.576;2024-02-23T01:03:41;93196.56;;;6.97
12662;BMP180;3200;48.204;11.576;2024-02-23T01:06:07;93232.78;;;7.28
12662;BMP180;3200;48.204;11.576;2024-02-23T01:08:33;93265.25;;;7.51
12662;BMP180;3200;48.204;11.576;2024-02-23T01:11:00;93208.81;;;7.08
12662;BMP180;3200;48.204;11.576;2024-02-23T01:13:25;93192.63;;;6.99
12662;BMP180;3200;48.204;11.576;2024-02-23T01:15:51;93317.72;;;7.64
12662;BMP180;3200;48.204;11.576;2024-02-23T01:18:19;93216.41;;;7.26
12662;BMP180;3200;48.204;11.576;2024-02-23T01:20:45;93301.44;;;7.77
12662;BMP180;3200;48.204;11.576;2024-02-23T01:23:11;93275.38;;;7.59
12662;BMP180;3200;48.204;11.576;2024-02-23T01:25:37;93227.66;;;7.16
12662;BMP180;3200;48.204;11.576;2024-02-23T01:28:03;93309.91;;;7.79
12662;BMP180;3200;48.204;11.576;2024-02-23T01:30:29;93276.97;;;7.60
12662;BMP180;3200;48.204;11.576;2024-02-23T01:32:55;93271.22;;;7.41
12662;BMP180;3200;48.204;11.576;2024-02-23T01:35:21;93258.97;;;7.30
12662;BMP180;3200;48.204;11.576;2024-02-23T01:37:47;93293.88;;;7.59
12662;BMP180;3200;48.204;11.576;2024-02-23T01:40:13;93223.56;;;7.04
12662;BMP180;3200;48.204;11.576;2024-02-23T01:42:39;93289.81;;;7.24
12662;BMP180;3200;48.204;11.576;2024-02-23T01:45:05;93322.16;;;7.58
12662;BMP180;3200;48.204;11.576;2024-02-23T01:47:31;93309.22;;;7.35
12662;BMP180;3200;48.204;11.576;2024-02-23T01:49:59;93260.53;;;7.04
12662;BMP180;3200;48.204;11.576;2024-02-23T01:52:25;93239.78;;;6.90
12662;BMP180;3200;48.204;11.576;2024-02-23T01:54:53;93313.56;;;7.46
12662;BMP180;3200;48.204;11.576;2024-02-23T01:57:21;93266.13;;;7.07
12662;BMP180;3200;48.204;11.576;2024-02-23T01:59:48;93288.09;;;7.13
12662;BMP180;3200;48.204;11.576;2024-02-23T02:02:15;93219.03;;;6.77
12662;BMP180;3200;48.204;11.576;2024-02-23T02:04:41;93267.00;;;6.91
12662;BMP180;3200;48.204;11.576;2024-02-23T02:07:07;93268.88;;;6.96
12662;BMP180;3200;48.204;11.576;2024-02-23T02:09:33;93322.34;;;7.25
12662;BMP180;3200;48.204;11.576;2024-02-23T02:11:59;93282.78;;;7.08
12662;BMP180;3200;48.204;11.576;2024-02-23T02:14:24;93275.16;;;6.89
12662;BMP180;3200;48.204;11.576;2024-02-23T02:16:51;93264.50;;;6.79
12662;BMP180;3200;48.204;11.576;2024-02-23T02:19:17;93303.28;;;7.01
12662;BMP180;3200;48.204;11.576;2024-02-23T02:21:43;93293.22;;;6.98
12662;BMP180;3200;48.204;11.576;2024-02-23T02:24:08;93334.13;;;7.17
12662;BMP180;3200;48.204;11.576;2024-02-23T02:26:37;93240.50;;;6.59
12662;BMP180;3200;48.204;11.576;2024-02-23T02:29:02;93272.84;;;6.71
12662;BMP180;3200;48.204;11.576;2024-02-23T02:31:29;93329.25;;;7.31
12662;BMP180;3200;48.204;11.576;2024-02-23T02:33:55;93350.25;;;7.42
12662;BMP180;3200;48.204;11.576;2024-02-23T02:36:21;93325.94;;;7.18
12662;BMP180;3200;48.204;11.576;2024-02-23T02:38:46;93320.09;;;7.38
12662;BMP180;3200;48.204;11.576;2024-02-23T02:41:12;93300.88;;;6.99
12662;BMP180;3200;48.204;11.576;2024-02-23T02:43:38;93281.28;;;7.17
12662;BMP180;3200;48.204;11.576;2024-02-23T02:46:04;93359.69;;;7.60
12662;BMP180;3200;48.204;11.576;2024-02-23T02:48:29;93339.63;;;7.37
12662;BMP180;3200;48.204;11.576;2024-02-23T02:50:55;93355.06;;;7.46
12662;BMP180;3200;48.204;11.576;2024-02-23T02:53:21;93386.34;;;7.54
12662;BMP180;3200;48.204;11.576;2024-02-23T02:55:47;93304.63;;;7.25
12662;BMP180;3200;48.204;11.576;2024-02-23T02:58:13;93353.53;;;7.50
12662;BMP180;3200;48.204;11.576;2024-02-23T03:00:39;93345.28;;;7.24
12662;BMP180;3200;48.204;11.576;2024-02-23T03:03:06;93397.50;;;7.61
12662;BMP180;3200;48.204;11.576;2024-02-23T03:05:32;93395.13;;;7.59
12662;BMP180;3200;48.204;11.576;2024-02-23T03:07:57;93348.97;;;7.23
12662;BMP180;3200;48.204;11.576;2024-02-23T03:10:23;93288.16;;;6.96
12662;BMP180;3200;48.204;11.576;2024-02-23T03:12:49;93281.13;;;6.80
12662;BMP180;3200;48.204;11.576;2024-02-23T03:15:15;93316.13;;;7.14
12662;BMP180;3200;48.204;11.576;2024-02-23T03:17:41;93301.56;;;6.89
12662;BMP180;3200;48.204;11.576;2024-02-23T03:20:08;93348.81;;;7.30
12662;BMP180;3200;48.204;11.576;2024-02-23T03:22:35;93336.53;;;6.97
12662;BMP180;3200;48.204;11.576;2024-02-23T03:25:02;93333.28;;;7.11
12662;BMP180;3200;48.204;11.576;2024-02-23T03:27:36;93396.81;;;7.43
12662;BMP180;3200;48.204;11.576;2024-02-23T03:30:04;93310.59;;;6.94
12662;BMP180;3200;48.204;11.576;2024-02-23T03:32:31;93309.56;;;6.95
12662;BMP180;3200;48.204;11.576;2024-02-23T03:35:02;93390.69;;;7.43
12662;BMP180;3200;48.204;11.576;2024-02-23T03:37:29;93326.94;;;7.12
12662;BMP180;3200;48.204;11.576;2024-02-23T03:39:55;93315.41;;;6.97
12662;BMP180;3200;48.204;11.576;2024-02-23T03:42:20;93269.28;;;6.60
12662;BMP180;3200;48.204;11.576;2024-02-23T03:44:46;93360.41;;;7.29
12662;BMP180;3200;48.204;11.576;2024-02-23T03:47:12;93367.03;;;7.53
12662;BMP180;3200;48.204;11.576;2024-02-23T03:49:38;93366.31;;;7.14
12662;BMP180;3200;48.204;11.576;2024-02-23T03:52:05;93349.28;;;7.05
12662;BMP180;3200;48.204;11.576;2024-02-23T03:54:31;93309.00;;;6.71
12662;BMP180;3200;48.204;11.576;2024-02-23T03:56:59;93359.94;;;6.71
12662;BMP180;3200;48.204;11.576;2024-02-23T03:59:25;93376.63;;;6.94
12662;BMP180;3200;48.204;11.576;2024-02-23T04:01:51;93393.59;;;6.81
12662;BMP180;3200;48.204;11.576;2024-02-23T04:04:17;93361.09;;;6.42
12662;BMP180;3200;48.204;11.576;2024-02-23T04:06:43;93353.59;;;6.33
12662;BMP180;3200;48.204;11.576;2024-02-23T04:09:09;93297.44;;;5.99
12662;BMP180;3200;48.204;11.576;2024-02-23T04:11:35;93374.38;;;6.63
12662;BMP180;3200;48.204;11.576;2024-02-23T04:14:01;93310.97;;;6.42
12662;BMP180;3200;48.204;11.576;2024-02-23T04:16:27;93351.53;;;6.35
12662;BMP180;3200;48.204;11.576;2024-02-23T04:18:54;93378.94;;;6.51
12662;BMP180;3200;48.204;11.576;2024-02-23T04:21:20;93342.00;;;6.34
12662;BMP180;3200;48.204;11.576;2024-02-23T04:23:46;93361.75;;;6.32
12662;BMP180;3200;48.204;11.576;2024-02-23T04:26:12;93348.09;;;6.18
12662;BMP180;3200;48.204;11.576;2024-02-23T04:28:39;93357.34;;;6.37
12662;BMP180;3200;48.204;11.576;2024-02-23T04:31:05;93349.84;;;5.96
12662;BMP180;3200;48.204;11.576;2024-02-23T04:33:31;93375.56;;;6.05
12662;BMP180;3200;48.204;11.576;2024-02-23T04:35:58;93331.66;;;5.82
12662;BMP180;3200;48.204;11.576;2024-02-23T04:38:24;93366.59;;;6.06
12662;BMP180;3200;48.204;11.576;2024-02-23T04:40:50;93395.81;;;6.17
12662;BMP180;3200;48.204;11.576;2024-02-23T04:43:16;93309.84;;;5.70
12662;BMP180;3200;48.204;11.576;2024-02-23T04:45:41;93279.88;;;5.43
12662;BMP180;3200;48.204;11.576;2024-02-23T04:48:07;93337.88;;;5.76
12662;BMP180;3200;48.204;11.576;2024-02-23T04:50:33;93394.19;;;5.99
12662;BMP180;3200;48.204;11.576;2024-02-23T04:52:59;93415.22;;;6.27
12662;BMP180;3200;48.204;11.576;2024-02-23T04:55:25;93358.63;;;6.01
12662;BMP180;3200;48.204;11.576;2024-02-23T04:57:51;93336.88;;;5.49
12662;BMP180;3200;48.204;11.576;2024-02-23T05:00:17;93421.22;;;6.23
12662;BMP180;3200;48.204;11.576;2024-02-23T05:02:43;93426.09;;;6.48
12662;BMP180;3200;48.204;11.576;2024-02-23T05:05:09;93360.31;;;6.24
12662;BMP180;3200;48.204;11.576;2024-02-23T05:07:35;93348.16;;;6.23
12662;BMP180;3200;48.204;11.576;2024-02-23T05:10:01;93329.69;;;6.23
12662;BMP180;3200;48.204;11.576;2024-02-23T05:12:27;93305.09;;;6.18
12662;BMP180;3200;48.204;11.576;2024-02-23T05:14:53;93347.34;;;6.06
12662;BMP180;3200;48.204;11.576;2024-02-23T05:17:19;93329.41;;;6.03
12662;BMP180;3200;48.204;11.576;2024-02-23T05:19:44;93329.22;;;5.93
12662;BMP180;3200;48.204;11.576;2024-02-23T05:22:12;93337.53;;;6.01
12662;BMP180;3200;48.204;11.576;2024-02-23T05:24:38;93287.63;;;5.83
12662;BMP180;3200;48.204;11.576;2024-02-23T05:27:04;93324.09;;;6.20
12662;BMP180;3200;48.204;11.576;2024-02-23T05:29:30;93338.00;;;6.15
12662;BMP180;3200;48.204;11.576;2024-02-23T05:31:56;93337.94;;;6.10
12662;BMP180;3200;48.204;11.576;2024-02-23T05:34:22;93399.53;;;6.71
12662;BMP180;3200;48.204;11.576;2024-02-23T05:36:48;93380.28;;;6.37
12662;BMP180;3200;48.204;11.576;2024-02-23T05:39:15;93314.88;;;5.72
12662;BMP180;3200;48.204;11.576;2024-02-23T05:41:41;93339.75;;;5.93
12662;BMP180;3200;48.204;11.576;2024-02-23T05:44:08;93313.03;;;5.72
12662;BMP180;3200;48.204;11.576;2024-02-23T05:46:35;93343.28;;;6.15
12662;BMP180;3200;48.204;11.576;2024-02-23T05:49:02;93376.22;;;6.12
12662;BMP180;3200;48.204;11.576;2024-02-23T05:51:28;93367.50;;;6.12
12662;BMP180;3200;48.204;11.576;2024-02-23T05:53:55;93380.75;;;6.00
12662;BMP180;3200;48.204;11.576;2024-02-23T05:56:21;93327.09;;;5.61
12662;BMP180;3200;48.204;11.576;2024-02-23T05:58:47;93366.44;;;5.96
12662;BMP180;3200;48.204;11.576;2024-02-23T06:01:14;93427.38;;;6.28
12662;BMP180;3200;48.204;11.576;2024-02-23T06:03:39;93329.38;;;5.57
12662;BMP180;3200;48.204;11.576;2024-02-23T06:06:08;93404.97;;;6.14
12662;BMP180;3200;48.204;11.576;2024-02-23T06:08:35;93394.78;;;5.89
12662;BMP180;3200;48.204;11.576;2024-02-23T06:11:02;93326.91;;;5.51
12662;BMP180;3200;48.204;11.576;2024-02-23T06:13:32;93329.53;;;5.51
12662;BMP180;3200;48.204;11.576;2024-02-23T06:15:59;93342.28;;;5.71
12662;BMP180;3200;48.204;11.576;2024-02-23T06:18:25;93372.47;;;5.80
12662;BMP180;3200;48.204;11.576;2024-02-23T06:20:51;93411.44;;;6.06
12662;BMP180;3200;48.204;11.576;2024-02-23T06:23:17;93387.25;;;5.81
12662;BMP180;3200;48.204;11.576;2024-02-23T06:25:43;93374.31;;;5.79
12662;BMP180;3200;48.204;11.576;2024-02-23T06:28:09;93424.19;;;6.26
12662;BMP180;3200;48.204;11.576;2024-02-23T06:30:36;93373.63;;;6.01
12662;BMP180;3200;48.204;11.576;2024-02-23T06:33:02;93427.22;;;6.18
12662;BMP180;3200;48.204;11.576;2024-02-23T06:35:55;93452.50;;;6.31
12662;BMP180;3200;48.204;11.576;2024-02-23T06:38:20;93427.69;;;6.15
12662;BMP180;3200;48.204;11.576;2024-02-23T06:41:34;93422.56;;;6.25
12662;BMP180;3200;48.204;11.576;2024-02-23T06:44:00;93460.50;;;6.53
12662;BMP180;3200;48.204;11.576;2024-02-23T06:46:26;93436.66;;;6.31
12662;BMP180;3200;48.204;11.576;2024-02-23T06:48:52;93407.72;;;6.19
12662;BMP180;3200;48.204;11.576;2024-02-23T06:51:18;93415.63;;;6.36
12662;BMP180;3200;48.204;11.576;2024-02-23T06:53:46;93345.41;;;5.84
12662;BMP180;3200;48.204;11.576;2024-02-23T06:56:11;93389.72;;;6.16
12662;BMP180;3200;48.204;11.576;2024-02-23T06:58:37;93386.91;;;6.06
12662;BMP180;3200;48.204;11.576;2024-02-23T07:01:04;93393.47;;;6.03
12662;BMP180;3200;48.204;11.576;2024-02-23T07:03:33;93404.06;;;5.92
12662;BMP180;3200;48.204;11.576;2024-02-23T07:06:00;93444.25;;;6.27
12662;BMP180;3200;48.204;11.576;2024-02-23T07:08:26;93414.56;;;6.20
12662;BMP180;3200;48.204;11.576;2024-02-23T07:10:52;93399.81;;;5.90
12662;BMP180;3200;48.204;11.576;2024-02-23T07:13:18;93377.41;;;5.76
12662;BMP180;3200;48.204;11.576;2024-02-23T07:15:45;93403.31;;;6.08
12662;BMP180;3200;48.204;11.576;2024-02-23T07:18:11;93407.47;;;6.04
12662;BMP180;3200;48.204;11.576;2024-02-23T07:20:37;93418.56;;;6.06
12662;BMP180;3200;48.204;11.576;2024-02-23T07:23:04;93442.31;;;6.23
12662;BMP180;3200;48.204;11.576;2024-02-23T07:25:31;93467.38;;;6.37
12662;BMP180;3200;48.204;11.576;2024-02-23T07:27:57;93418.56;;;6.06
12662;BMP180;3200;48.204;11.576;2024-02-23T07:30:24;93439.91;;;6.04
12662;BMP180;3200;48.204;11.576;2024-02-23T07:32:49;93490.41;;;6.42
12662;BMP180;3200;48.204;11.576;2024-02-23T07:35:15;93411.69;;;6.05
12662;BMP180;3200;48.204;11.576;2024-02-23T07:37:41;93443.03;;;6.35
12662;BMP180;3200;48.204;11.576;2024-02-23T07:40:08;93404.94;;;5.97
12662;BMP180;3200;48.204;11.576;2024-02-23T07:42:34;93418.63;;;5.94
12662;BMP180;3200;48.204;11.576;2024-02-23T07:45:06;93451.53;;;6.37
12662;BMP180;3200;48.204;11.576;2024-02-23T07:47:32;93438.38;;;6.08
12662;BMP180;3200;48.204;11.576;2024-02-23T07:49:58;93426.97;;;6.03
12662;BMP180;3200;48.204;11.576;2024-02-23T07:52:25;93476.31;;;6.53
12662;BMP180;3200;48.204;11.576;2024-02-23T07:54:54;93485.44;;;6.62
12662;BMP180;3200;48.204;11.576;2024-02-23T07:57:20;93496.91;;;6.84
12662;BMP180;3200;48.204;11.576;2024-02-23T07:59:47;93481.06;;;6.84
12662;BMP180;3200;48.204;11.576;2024-02-23T08:02:14;93485.88;;;6.87
12662;BMP180;3200;48.204;11.576;2024-02-23T08:04:40;93494.81;;;6.86
12662;BMP180;3200;48.204;11.576;2024-02-23T08:07:06;93440.19;;;6.70
12662;BMP180;3200;48.204;11.576;2024-02-23T08:09:32;93365.19;;;6.32
12662;BMP180;3200;48.204;11.576;2024-02-23T08:11:58;93381.31;;;6.53
12662;BMP180;3200;48.204;11.576;2024-02-23T08:14:24;93368.16;;;6.19
12662;BMP180;3200;48.204;11.576;2024-02-23T08:16:49;93447.13;;;6.76
12662;BMP180;3200;48.204;11.576;2024-02-23T08:19:15;93417.63;;;6.62
12662;BMP180;3200;48.204;11.576;2024-02-23T08:21:41;93446.66;;;6.79
12662;BMP180;3200;48.204;11.576;2024-02-23T08:24:09;93410.75;;;6.78
12662;BMP180;3200;48.204;11.576;2024-02-23T08:26:35;93330.16;;;6.20
12662;BMP180;3200;48.204;11.576;2024-02-23T08:29:03;93382.13;;;6.36
12662;BMP180;3200;48.204;11.576;2024-02-23T08:31:30;93427.78;;;7.09
12662;BMP180;3200;48.204;11.576;2024-02-23T08:33:56;93410.00;;;7.22
12662;BMP180;3200;48.204;11.576;2024-02-23T08:36:22;93425.47;;;7.13
12662;BMP180;3200;48.204;11.576;2024-02-23T08:38:48;93485.91;;;7.70
12662;BMP180;3200;48.204;11.576;2024-02-23T08:41:14;93351.94;;;6.83
12662;BMP180;3200;48.204;11.576;2024-02-23T08:43:40;93463.47;;;7.51
12662;BMP180;3200;48.204;11.576;2024-02-23T08:46:06;93467.06;;;7.39
12662;BMP180;3200;48.204;11.576;2024-02-23T08:48:33;93390.38;;;6.96
12662;BMP180;3200;48.204;11.576;2024-02-23T08:51:00;93418.72;;;6.83
12662;BMP180;3200;48.204;11.576;2024-02-23T08:53:26;93426.97;;;6.70
12662;BMP180;3200;48.204;11.576;2024-02-23T08:55:52;93477.44;;;6.90
12662;BMP180;3200;48.204;11.576;2024-02-23T08:58:17;93472.00;;;6.97
12662;BMP180;3200;48.204;11.576;2024-02-23T09:00:43;93464.25;;;6.90
12662;BMP180;3200;48.204;11.576;2024-02-23T09:03:09;93383.88;;;6.48
12662;BMP180;3200;48.204;11.576;2024-02-23T09:05:35;93447.44;;;6.97
12662;BMP180;3200;48.204;11.576;2024-02-23T09:08:01;93505.06;;;7.38
12662;BMP180;3200;48.204;11.576;2024-02-23T09:10:27;93489.59;;;7.08
12662;BMP180;3200;48.204;11.576;2024-02-23T09:12:52;93463.03;;;6.81
12662;BMP180;3200;48.204;11.576;2024-02-23T09:15:18;93480.09;;;6.57
12662;BMP180;3200;48.204;11.576;2024-02-23T09:17:44;93419.13;;;6.08
12662;BMP180;3200;48.204;11.576;2024-02-23T09:20:11;93474.09;;;6.45
12662;BMP180;3200;48.204;11.576;2024-02-23T09:22:37;93473.34;;;6.49
12662;BMP180;3200;48.204;11.576;2024-02-23T09:25:03;93475.38;;;6.76
12662;BMP180;3200;48.204;11.576;2024-02-23T09:27:31;93559.66;;;7.11
12662;BMP180;3200;48.204;11.576;2024-02-23T09:29:56;93491.81;;;6.49
12662;BMP180;3200;48.204;11.576;2024-02-23T09:32:24;93426.53;;;5.94
12662;BMP180;3200;48.204;11.576;2024-02-23T09:34:50;93480.34;;;6.10
12662;BMP180;3200;48.204;11.576;2024-02-23T09:37:15;93483.84;;;6.15
12662;BMP180;3200;48.204;11.576;2024-02-23T09:39:41;93457.56;;;6.04
12662;BMP180;3200;48.204;11.576;2024-02-23T09:42:10;93423.03;;;6.05
12662;BMP180;3200;48.204;11.576;2024-02-23T09:44:41;93436.84;;;6.41
12662;BMP180;3200;48.204;11.576;2024-02-23T09:47:08;93475.69;;;6.46
12662;BMP180;3200;48.204;11.576;2024-02-23T09:49:40;93436.50;;;6.37
12662;BMP180;3200;48.204;11.576;2024-02-23T09:52:10;93532.25;;;7.00
12662;BMP180;3200;48.204;11.576;2024-02-23T09:54:39;93484.09;;;6.59
12662;BMP180;3200;48.204;11.576;2024-02-23T09:57:08;93447.34;;;6.24
12662;BMP180;3200;48.204;11.576;2024-02-23T09:59:35;93465.69;;;6.48
12662;BMP180;3200;48.204;11.576;2024-02-23T10:02:07;93511.13;;;6.50
12662;BMP180;3200;48.204;11.576;2024-02-23T10:04:34;93486.75;;;6.14
12662;BMP180;3200;48.204;11.576;2024-02-23T10:07:00;93458.72;;;6.42
12662;BMP180;3200;48.204;11.576;2024-02-23T10:09:26;93419.22;;;5.84
12662;BMP180;3200;48.204;11.576;2024-02-23T10:11:53;93469.53;;;6.40
12662;BMP180;3200;48.204;11.576;2024-02-23T10:14:19;93451.13;;;6.62
12662;BMP180;3200;48.204;11.576;2024-02-23T10:17:11;93492.66;;;6.50
12662;BMP180;3200;48.204;11.576;2024-02-23T10:19:40;93415.00;;;6.12
12662;BMP180;3200;48.204;11.576;2024-02-23T10:22:06;93481.22;;;6.61
12662;BMP180;3200;48.204;11.576;2024-02-23T10:24:32;93459.78;;;6.40
12662;BMP180;3200;48.204;11.576;2024-02-23T10:26:58;93372.59;;;5.16
12662;BMP180;3200;48.204;11.576;2024-02-23T10:29:26;93392.25;;;5.66
12662;BMP180;3200;48.204;11.576;2024-02-23T10:32:39;93534.88;;;6.50
12662;BMP180;3200;48.204;11.576;2024-02-23T10:35:15;93490.25;;;6.03
12662;BMP180;3200;48.204;11.576;2024-02-23T10:37:49;93472.69;;;6.25
12662;BMP180;3200;48.204;11.576;2024-02-23T10:40:50;93469.91;;;6.32
12662;BMP180;3200;48.204;11.576;2024-02-23T10:43:19;93486.53;;;6.49
12662;BMP180;3200;48.204;11.576;2024-02-23T10:45:48;93494.81;;;6.86
12662;BMP180;3200;48.204;11.576;2024-02-23T10:48:15;93479.53;;;6.72
12662;BMP180;3200;48.204;11.576;2024-02-23T10:50:43;93536.31;;;7.41
12662;BMP180;3200;48.204;11.576;2024-02-23T10:53:11;93551.22;;;7.31
12662;BMP180;3200;48.204;11.576;2024-02-23T10:55:38;93542.25;;;7.15
12662;BMP180;3200;48.204;11.576;2024-02-23T10:58:16;93550.91;;;7.27
12662;BMP180;3200;48.204;11.576;2024-02-23T11:00:42;93546.19;;;7.12
12662;BMP180;3200;48.204;11.576;2024-02-23T11:03:08;93558.28;;;7.08
12662;BMP180;3200;48.204;11.576;2024-02-23T11:05:35;93453.38;;;6.53
12662;BMP180;3200;48.204;11.576;2024-02-23T11:08:32;93559.72;;;7.16
12662;BMP180;3200;48.204;11.576;2024-02-23T11:11:11;93521.59;;;6.61
12662;BMP180;3200;48.204;11.576;2024-02-23T11:13:38;93506.34;;;6.80
12662;BMP180;3200;48.204;11.576;2024-02-23T11:16:06;93537.88;;;7.04
12662;BMP180;3200;48.204;11.576;2024-02-23T11:18:35;93542.44;;;7.08
12662;BMP180;3200;48.204;11.576;2024-02-23T11:21:04;93546.59;;;7.04
12662;BMP180;3200;48.204;11.576;2024-02-23T11:23:49;93524.59;;;6.99
12662;BMP180;3200;48.204;11.576;2024-02-23T11:26:18;93517.28;;;6.72
12662;BMP180;3200;48.204;11.576;2024-02-23T11:28:51;93548.03;;;7.12
12662;BMP180;3200;48.204;11.576;2024-02-23T11:31:22;93473.22;;;6.56
12662;BMP180;3200;48.204;11.576;2024-02-23T11:33:56;93495.63;;;6.87
12662;BMP180;3200;48.204;11.576;2024-02-23T11:36:32;93423.78;;;6.34
12662;BMP180;3200;48.204;11.576;2024-02-23T11:39:50;93541.00;;;6.84
12662;BMP180;3200;48.204;11.576;2024-02-23T11:42:18;93458.47;;;6.43
12662;BMP180;3200;48.204;11.576;2024-02-23T11:44:44;93463.22;;;6.58
12662;BMP180;3200;48.204;11.576;2024-02-23T11:47:10;93544.53;;;7.06
12662;BMP180;3200;48.204;11.576;2024-02-23T11:49:36;93515.91;;;6.53
12662;BMP180;3200;48.204;11.576;2024-02-23T11:52:02;93546.13;;;7.07
12662;BMP180;3200;48.204;11.576;2024-02-23T11:54:28;93474.56;;;6.42
12662;BMP180;3200;48.204;11.576;2024-02-23T11:56:55;93473.06;;;6.46
12662;BMP180;3200;48.204;11.576;2024-02-23T11:59:22;93440.78;;;6.10
12662;BMP180;3200;48.204;11.576;2024-02-23T12:01:49;93478.66;;;6.04
12662;BMP180;3200;48.204;11.576;2024-02-23T12:04:15;93531.66;;;6.48
12662;BMP180;3200;48.204;11.576;2024-02-23T12:06:53;93452.84;;;6.06
12662;BMP180;3200;48.204;11.576;2024-02-23T12:09:23;93538.63;;;6.54
12662;BMP180;3200;48.204;11.576;2024-02-23T12:11:51;93455.66;;;6.16
12662;BMP180;3200;48.204;11.576;2024-02-23T12:14:23;93422.97;;;5.88
12662;BMP180;3200;48.204;11.576;2024-02-23T12:16:53;93484.78;;;6.21
12662;BMP180;3200;48.204;11.576;2024-02-23T12:19:22;93456.22;;;5.89
12662;BMP180;3200;48.204;11.576;2024-02-23T12:21:50;93512.88;;;6.61
12662;BMP180;3200;48.204;11.576;2024-02-23T12:24:22;93505.13;;;6.71
12662;BMP180;3200;48.204;11.576;2024-02-23T12:26:56;93477.50;;;6.28
12662;BMP180;3200;48.204;11.576;2024-02-23T12:29:23;93469.91;;;6.32
12662;BMP180;3200;48.204;11.576;2024-02-23T12:31:49;93386.28;;;6.15
12662;BMP180;3200;48.204;11.576;2024-02-23T12:34:18;93443.44;;;6.27
12662;BMP180;3200;48.204;11.576;2024-02-23T12:36:46;93424.28;;;6.31
12662;BMP180;3200;48.204;11.576;2024-02-23T12:42:42;93408.75;;;5.89
12662;BMP180;3200;48.204;11.576;2024-02-23T12:45:10;93439.19;;;6.09
12662;BMP180;3200;48.204;11.576;2024-02-23T12:47:36;93516.34;;;6.78
12662;BMP180;3200;48.204;11.576;2024-02-23T12:50:02;93382.13;;;5.46
12662;BMP180;3200;48.204;11.576;2024-02-23T12:52:33;93394.03;;;5.77
12662;BMP180;3200;48.204;11.576;2024-02-23T12:55:00;93478.28;;;6.29
12662;BMP180;3200;48.204;11.576;2024-02-23T12:57:26;93426.00;;;5.80
12662;BMP180;3200;48.204;11.576;2024-02-23T12:59:52;93402.09;;;5.87
12662;BMP180;3200;48.204;11.576;2024-02-23T13:02:18;93403.53;;;6.06
12662;BMP180;3200;48.204;11.576;2024-02-23T13:04:52;93458.91;;;6.52
12662;BMP180;3200;48.204;11.576;2024-02-23T13:07:22;93430.22;;;6.10
12662;BMP180;3200;48.204;11.576;2024-02-23T13:13:28;93472.94;;;6.24
12662;BMP180;3200;48.204;11.576;2024-02-23T13:15:55;93459.28;;;6.27
12662;BMP180;3200;48.204;11.576;2024-02-23T13:18:21;93378.06;;;5.55
12662;BMP180;3200;48.204;11.576;2024-02-23T13:20:47;93382.72;;;5.64
12662;BMP180;3200;48.204;11.576;2024-02-23T13:23:13;93434.66;;;5.93
12662;BMP180;3200;48.204;11.576;2024-02-23T13:25:50;93473.66;;;6.19
12662;BMP180;3200;48.204;11.576;2024-02-23T13:28:17;93530.81;;;6.59
12662;BMP180;3200;48.204;11.576;2024-02-23T13:30:44;93454.34;;;6.02
12662;BMP180;3200;48.204;11.576;2024-02-23T13:33:11;93520.72;;;6.56
12662;BMP180;3200;48.204;11.576;2024-02-23T13:35:37;93467.81;;;6.17
12662;BMP180;3200;48.204;11.576;2024-02-23T13:38:04;93396.03;;;5.70
12662;BMP180;3200;48.204;11.576;2024-02-23T13:40:31;93368.72;;;5.76
12662;BMP180;3200;48.204;11.576;2024-02-23T13:42:57;93374.81;;;5.36
12662;BMP180;3200;48.204;11.576;2024-02-23T13:45:23;93449.09;;;5.90
12662;BMP180;3200;48.204;11.576;2024-02-23T13:48:01;93401.13;;;6.05
12662;BMP180;3200;48.204;11.576;2024-02-23T13:50:28;93370.72;;;5.85
12662;BMP180;3200;48.204;11.576;2024-02-23T13:52:54;93473.00;;;6.12
12662;BMP180;3200;48.204;11.576;2024-02-23T13:55:20;93376.56;;;5.30
12662;BMP180;3200;48.204;11.576;2024-02-23T13:57:50;93448.31;;;5.49
12662;BMP180;3200;48.204;11.576;2024-02-23T14:00:18;93352.44;;;5.50
12662;BMP180;3200;48.204;11.576;2024-02-23T14:02:44;93354.94;;;5.57
12662;BMP180;3200;48.204;11.576;2024-02-23T14:05:10;93330.19;;;5.29
12662;BMP180;3200;48.204;11.576;2024-02-23T14:07:36;93410.78;;;5.71
12662;BMP180;3200;48.204;11.576;2024-02-23T14:10:04;93418.13;;;5.69
12662;BMP180;3200;48.204;11.576;2024-02-23T14:12:34;93450.69;;;6.03
12662;BMP180;3200;48.204;11.576;2024-02-23T14:15:04;93371.53;;;5.57
12662;BMP180;3200;48.204;11.576;2024-02-23T14:17:34;93326.78;;;5.17
12662;BMP180;3200;48.204;11.576;2024-02-23T14:20:03;93441.91;;;6.14
12662;BMP180;3200;48.204;11.576;2024-02-23T14:22:29;93435.25;;;6.11
12662;BMP180;3200;48.204;11.576;2024-02-23T14:24:55;93388.22;;;5.46
12662;BMP180;3200;48.204;11.576;2024-02-23T14:27:22;93449.16;;;6.07
12662;BMP180;3200;48.204;11.576;2024-02-23T14:29:48;93449.97;;;5.67
12662;BMP180;3200;48.204;11.576;2024-02-23T14:32:18;93377.69;;;5.34